Upstream stations:
Downstream station:
SHEF ID: AMAT2 Canadian Rv nr Amarillo, TX
STATION TYPE:
Regulating: Stage = 13.00, Flow = 87096
STAGE RIV-FLOW WTR-TEMP CONDUCT BAT-LOAD
ft cfs F umho/cm volt
Ccp-Rev Ccp-Rev Ccp-Rev Ccp-Rev Ccp-Rev
(US/Central)
05/18 00:00 0.88 5 66.11 2 12.73
05/18 01:00 0.88 5 66.07 2 12.73
05/18 02:00 0.88 5 66.00 2 12.65
05/18 03:00 0.86 4 65.88 2 12.65
05/18 04:00 0.88 5 65.73 2 12.65
05/18 05:00 0.87 4 65.55 2 12.65
05/18 06:00 0.88 5 65.35 2 12.57
05/18 07:00 0.88 5 65.16 2 12.65
05/18 08:00 0.81 3 64.96 2 12.73
05/18 09:00 0.87 4 64.78 2 12.97
05/18 10:00 0.92 6 64.62 2 13.05
05/18 11:00 0.87 4 64.49 2 13.13
05/18 12:00 1.08 14 64.44 2 13.13
05/18 13:00 0.94 7 64.47 2 13.05
05/18 14:00 0.99 9 64.65 2 12.97
05/18 15:00 -0.05 0 ---- ---- 12.97
05/18 16:00 0.66 0 102.76 0 12.97
05/18 17:00 0.66 0 83.19 7 12.97
05/18 18:00 0.64 0 81.10 7 12.81
05/18 19:00 0.65 0 80.35 7 12.81
05/18 20:00 0.65 0 79.41 7 12.81
05/18 21:00 0.64 0 77.92 7 12.81
05/18 22:00 0.65 0 75.74 7 12.73
05/18 23:00 0.65 0 74.32 7 12.73